sensor_id;sensor_type;location;lat;lon;timestamp;pressure;altitude;pressure_sealevel;temperature;humidity
36454;BME280;22478;51.740;-1.314;2023-03-16T00:02:24;99647.54;;;2.20;100.00
36454;BME280;22478;51.740;-1.314;2023-03-16T00:04:51;99640.12;;;2.69;100.00
36454;BME280;22478;51.740;-1.314;2023-03-16T00:07:18;99627.88;;;2.54;100.00
36454;BME280;22478;51.740;-1.314;2023-03-16T00:09:46;99622.34;;;1.66;100.00
36454;BME280;22478;51.740;-1.314;2023-03-16T00:12:15;99617.61;;;1.10;100.00
36454;BME280;22478;51.740;-1.314;2023-03-16T00:14:45;99625.88;;;2.19;100.00
36454;BME280;22478;51.740;-1.314;2023-03-16T00:17:14;99618.40;;;1.34;100.00
36454;BME280;22478;51.740;-1.314;2023-03-16T00:19:41;99614.76;;;1.82;100.00
36454;BME280;22478;51.740;-1.314;2023-03-16T00:22:09;99613.52;;;2.69;100.00
36454;BME280;22478;51.740;-1.314;2023-03-16T00:24:36;99604.67;;;2.44;100.00
36454;BME280;22478;51.740;-1.314;2023-03-16T00:27:04;99603.69;;;2.07;100.00
36454;BME280;22478;51.740;-1.314;2023-03-16T00:29:31;99600.65;;;1.92;100.00
36454;BME280;22478;51.740;-1.314;2023-03-16T00:31:58;99598.83;;;1.96;100.00
36454;BME280;22478;51.740;-1.314;2023-03-16T00:34:25;99603.66;;;1.37;100.00
36454;BME280;22478;51.740;-1.314;2023-03-16T00:36:53;99602.30;;;2.33;100.00
36454;BME280;22478;51.740;-1.314;2023-03-16T00:39:19;99596.53;;;2.80;100.00
36454;BME280;22478;51.740;-1.314;2023-03-16T00:41:46;99593.80;;;2.50;100.00
36454;BME280;22478;51.740;-1.314;2023-03-16T00:44:14;99595.60;;;1.67;100.00
36454;BME280;22478;51.740;-1.314;2023-03-16T00:46:41;99584.88;;;2.21;100.00
36454;BME280;22478;51.740;-1.314;2023-03-16T00:49:08;99579.77;;;2.78;100.00
36454;BME280;22478;51.740;-1.314;2023-03-16T00:51:35;99568.23;;;2.89;100.00
36454;BME280;22478;51.740;-1.314;2023-03-16T00:54:03;99562.26;;;1.60;100.00
36454;BME280;22478;51.740;-1.314;2023-03-16T00:56:30;99555.80;;;2.27;100.00
36454;BME280;22478;51.740;-1.314;2023-03-16T00:58:57;99547.26;;;3.53;100.00
36454;BME280;22478;51.740;-1.314;2023-03-16T01:01:24;99537.87;;;3.30;100.00
36454;BME280;22478;51.740;-1.314;2023-03-16T01:03:52;99536.00;;;3.56;100.00
36454;BME280;22478;51.740;-1.314;2023-03-16T01:06:20;99532.27;;;3.68;100.00
36454;BME280;22478;51.740;-1.314;2023-03-16T01:08:47;99528.89;;;3.22;100.00
36454;BME280;22478;51.740;-1.314;2023-03-16T01:11:16;99531.86;;;2.01;100.00
36454;BME280;22478;51.740;-1.314;2023-03-16T01:13:44;99529.54;;;1.50;100.00
36454;BME280;22478;51.740;-1.314;2023-03-16T01:16:14;99522.51;;;2.61;100.00
36454;BME280;22478;51.740;-1.314;2023-03-16T01:18:41;99527.07;;;3.65;100.00
36454;BME280;22478;51.740;-1.314;2023-03-16T01:21:09;99516.49;;;3.11;100.00
36454;BME280;22478;51.740;-1.314;2023-03-16T01:23:36;99516.05;;;3.20;100.00
36454;BME280;22478;51.740;-1.314;2023-03-16T01:26:04;99509.35;;;3.60;100.00
36454;BME280;22478;51.740;-1.314;2023-03-16T01:28:32;99504.77;;;3.76;100.00
36454;BME280;22478;51.740;-1.314;2023-03-16T01:31:01;99507.18;;;3.01;100.00
36454;BME280;22478;51.740;-1.314;2023-03-16T01:33:29;99505.85;;;3.35;100.00
36454;BME280;22478;51.740;-1.314;2023-03-16T01:35:59;99500.60;;;3.16;100.00
36454;BME280;22478;51.740;-1.314;2023-03-16T01:38:26;99495.58;;;3.10;100.00
36454;BME280;22478;51.740;-1.314;2023-03-16T01:40:54;99489.23;;;3.58;100.00
36454;BME280;22478;51.740;-1.314;2023-03-16T01:43:23;99477.77;;;4.30;100.00
36454;BME280;22478;51.740;-1.314;2023-03-16T01:46:13;99483.68;;;4.00;100.00
36454;BME280;22478;51.740;-1.314;2023-03-16T01:48:44;99476.30;;;4.83;100.00
36454;BME280;22478;51.740;-1.314;2023-03-16T01:51:16;99473.10;;;3.82;100.00
36454;BME280;22478;51.740;-1.314;2023-03-16T01:53:46;99471.16;;;4.86;100.00
36454;BME280;22478;51.740;-1.314;2023-03-16T01:56:17;99474.18;;;4.06;100.00
36454;BME280;22478;51.740;-1.314;2023-03-16T01:58:46;99476.01;;;4.14;100.00
36454;BME280;22478;51.740;-1.314;2023-03-16T02:01:14;99473.48;;;3.71;100.00
36454;BME280;22478;51.740;-1.314;2023-03-16T02:03:42;99467.48;;;3.77;100.00
36454;BME280;22478;51.740;-1.314;2023-03-16T02:06:12;99463.81;;;4.12;100.00
36454;BME280;22478;51.740;-1.314;2023-03-16T02:08:42;99460.33;;;4.23;100.00
36454;BME280;22478;51.740;-1.314;2023-03-16T02:11:11;99452.59;;;4.86;100.00
36454;BME280;22478;51.740;-1.314;2023-03-16T02:13:39;99466.13;;;3.52;100.00
36454;BME280;22478;51.740;-1.314;2023-03-16T02:16:07;99461.05;;;3.44;100.00
36454;BME280;22478;51.740;-1.314;2023-03-16T02:18:35;99459.28;;;3.36;100.00
36454;BME280;22478;51.740;-1.314;2023-03-16T02:21:08;99452.43;;;3.69;100.00
36454;BME280;22478;51.740;-1.314;2023-03-16T02:23:37;99451.11;;;3.10;100.00
36454;BME280;22478;51.740;-1.314;2023-03-16T02:26:12;99447.08;;;3.12;100.00
36454;BME280;22478;51.740;-1.314;2023-03-16T02:28:47;99452.06;;;3.68;100.00
36454;BME280;22478;51.740;-1.314;2023-03-16T02:31:17;99442.87;;;4.60;100.00
36454;BME280;22478;51.740;-1.314;2023-03-16T02:33:46;99436.68;;;3.85;100.00
36454;BME280;22478;51.740;-1.314;2023-03-16T02:36:17;99427.02;;;5.28;100.00
36454;BME280;22478;51.740;-1.314;2023-03-16T02:38:45;99436.27;;;3.98;100.00
36454;BME280;22478;51.740;-1.314;2023-03-16T02:41:15;99424.30;;;4.83;100.00
36454;BME280;22478;51.740;-1.314;2023-03-16T02:43:48;99420.15;;;4.47;100.00
36454;BME280;22478;51.740;-1.314;2023-03-16T02:46:19;99425.44;;;3.31;100.00
36454;BME280;22478;51.740;-1.314;2023-03-16T02:48:52;99414.66;;;3.90;100.00
36454;BME280;22478;51.740;-1.314;2023-03-16T02:51:21;99419.81;;;3.58;100.00
36454;BME280;22478;51.740;-1.314;2023-03-16T02:53:49;99415.17;;;5.06;100.00
36454;BME280;22478;51.740;-1.314;2023-03-16T02:56:15;99421.79;;;3.20;100.00
36454;BME280;22478;51.740;-1.314;2023-03-16T02:58:43;99405.82;;;4.53;100.00
36454;BME280;22478;51.740;-1.314;2023-03-16T03:01:10;99404.37;;;4.56;100.00
36454;BME280;22478;51.740;-1.314;2023-03-16T03:03:37;99404.83;;;4.25;100.00
36454;BME280;22478;51.740;-1.314;2023-03-16T03:06:05;99399.89;;;4.18;100.00
36454;BME280;22478;51.740;-1.314;2023-03-16T03:08:32;99403.36;;;4.11;100.00
36454;BME280;22478;51.740;-1.314;2023-03-16T03:10:59;99405.08;;;3.76;100.00
36454;BME280;22478;51.740;-1.314;2023-03-16T03:13:26;99400.88;;;4.64;100.00
36454;BME280;22478;51.740;-1.314;2023-03-16T03:15:53;99403.29;;;3.76;100.00
36454;BME280;22478;51.740;-1.314;2023-03-16T03:18:20;99412.87;;;2.56;100.00
36454;BME280;22478;51.740;-1.314;2023-03-16T03:20:48;99407.73;;;3.61;100.00
36454;BME280;22478;51.740;-1.314;2023-03-16T03:23:14;99415.79;;;3.98;100.00
36454;BME280;22478;51.740;-1.314;2023-03-16T03:25:42;99414.56;;;3.71;100.00
36454;BME280;22478;51.740;-1.314;2023-03-16T03:28:09;99402.89;;;3.81;100.00
36454;BME280;22478;51.740;-1.314;2023-03-16T03:30:36;99409.80;;;3.53;100.00
36454;BME280;22478;51.740;-1.314;2023-03-16T03:33:04;99400.37;;;4.05;100.00
36454;BME280;22478;51.740;-1.314;2023-03-16T03:35:31;99411.14;;;3.11;100.00
36454;BME280;22478;51.740;-1.314;2023-03-16T03:37:59;99407.38;;;3.88;100.00
36454;BME280;22478;51.740;-1.314;2023-03-16T03:40:26;99403.93;;;3.92;100.00
36454;BME280;22478;51.740;-1.314;2023-03-16T03:42:53;99402.29;;;4.79;100.00
36454;BME280;22478;51.740;-1.314;2023-03-16T03:45:21;99403.81;;;4.09;100.00
36454;BME280;22478;51.740;-1.314;2023-03-16T03:47:47;99393.30;;;5.27;100.00
36454;BME280;22478;51.740;-1.314;2023-03-16T03:50:15;99392.92;;;4.47;100.00
36454;BME280;22478;51.740;-1.314;2023-03-16T03:52:42;99397.04;;;4.29;100.00
36454;BME280;22478;51.740;-1.314;2023-03-16T03:55:10;99400.26;;;4.34;100.00
36454;BME280;22478;51.740;-1.314;2023-03-16T03:57:37;99385.27;;;5.42;100.00
36454;BME280;22478;51.740;-1.314;2023-03-16T04:00:07;99372.88;;;4.04;100.00
36454;BME280;22478;51.740;-1.314;2023-03-16T04:02:34;99370.85;;;4.35;100.00
36454;BME280;22478;51.740;-1.314;2023-03-16T04:05:01;99378.10;;;3.74;100.00
36454;BME280;22478;51.740;-1.314;2023-03-16T04:07:29;99377.76;;;4.12;100.00
36454;BME280;22478;51.740;-1.314;2023-03-16T04:09:56;99366.70;;;5.85;100.00
36454;BME280;22478;51.740;-1.314;2023-03-16T04:12:23;99361.52;;;5.00;100.00
36454;BME280;22478;51.740;-1.314;2023-03-16T04:14:50;99367.01;;;5.84;100.00
36454;BME280;22478;51.740;-1.314;2023-03-16T04:17:18;99364.09;;;5.29;100.00
36454;BME280;22478;51.740;-1.314;2023-03-16T04:19:45;99363.39;;;4.81;100.00
36454;BME280;22478;51.740;-1.314;2023-03-16T04:22:12;99363.48;;;3.93;100.00
36454;BME280;22478;51.740;-1.314;2023-03-16T04:24:39;99365.87;;;4.06;100.00
36454;BME280;22478;51.740;-1.314;2023-03-16T04:27:06;99371.62;;;3.88;100.00
36454;BME280;22478;51.740;-1.314;2023-03-16T04:29:33;99362.02;;;3.97;100.00
36454;BME280;22478;51.740;-1.314;2023-03-16T04:32:01;99354.29;;;5.02;100.00
36454;BME280;22478;51.740;-1.314;2023-03-16T04:34:28;99359.67;;;4.74;100.00
36454;BME280;22478;51.740;-1.314;2023-03-16T04:36:55;99352.18;;;3.74;100.00
36454;BME280;22478;51.740;-1.314;2023-03-16T04:39:22;99350.60;;;5.45;100.00
36454;BME280;22478;51.740;-1.314;2023-03-16T04:41:49;99347.52;;;5.88;100.00
36454;BME280;22478;51.740;-1.314;2023-03-16T04:44:17;99353.90;;;3.41;100.00
36454;BME280;22478;51.740;-1.314;2023-03-16T04:46:44;99351.18;;;3.87;100.00
36454;BME280;22478;51.740;-1.314;2023-03-16T04:49:12;99348.32;;;4.40;100.00
36454;BME280;22478;51.740;-1.314;2023-03-16T04:51:39;99344.20;;;4.45;100.00
36454;BME280;22478;51.740;-1.314;2023-03-16T04:54:06;99343.52;;;4.42;100.00
36454;BME280;22478;51.740;-1.314;2023-03-16T04:56:34;99347.97;;;4.14;100.00
36454;BME280;22478;51.740;-1.314;2023-03-16T04:59:02;99340.78;;;4.44;100.00
36454;BME280;22478;51.740;-1.314;2023-03-16T05:01:29;99345.61;;;3.90;100.00
36454;BME280;22478;51.740;-1.314;2023-03-16T05:03:56;99346.73;;;3.75;100.00
36454;BME280;22478;51.740;-1.314;2023-03-16T05:06:24;99339.90;;;3.24;100.00
36454;BME280;22478;51.740;-1.314;2023-03-16T05:08:51;99333.41;;;4.08;100.00
36454;BME280;22478;51.740;-1.314;2023-03-16T05:11:19;99328.47;;;4.07;100.00
36454;BME280;22478;51.740;-1.314;2023-03-16T05:13:46;99333.80;;;2.88;100.00
36454;BME280;22478;51.740;-1.314;2023-03-16T05:16:13;99326.39;;;4.65;100.00
36454;BME280;22478;51.740;-1.314;2023-03-16T05:18:40;99327.98;;;4.19;100.00
36454;BME280;22478;51.740;-1.314;2023-03-16T05:21:07;99336.03;;;3.60;100.00
36454;BME280;22478;51.740;-1.314;2023-03-16T05:23:35;99346.43;;;3.71;100.00
36454;BME280;22478;51.740;-1.314;2023-03-16T05:26:02;99343.85;;;4.55;100.00
36454;BME280;22478;51.740;-1.314;2023-03-16T05:28:30;99346.17;;;3.87;100.00
36454;BME280;22478;51.740;-1.314;2023-03-16T05:30:57;99355.17;;;2.55;100.00
36454;BME280;22478;51.740;-1.314;2023-03-16T05:33:24;99345.29;;;3.63;100.00
36454;BME280;22478;51.740;-1.314;2023-03-16T05:35:52;99344.92;;;4.27;100.00
36454;BME280;22478;51.740;-1.314;2023-03-16T05:38:20;99343.33;;;3.28;100.00
36454;BME280;22478;51.740;-1.314;2023-03-16T05:40:47;99347.73;;;2.79;100.00
36454;BME280;22478;51.740;-1.314;2023-03-16T05:43:14;99348.34;;;3.06;100.00
36454;BME280;22478;51.740;-1.314;2023-03-16T05:45:41;99344.48;;;3.72;100.00
36454;BME280;22478;51.740;-1.314;2023-03-16T05:48:08;99349.26;;;3.06;100.00
36454;BME280;22478;51.740;-1.314;2023-03-16T05:50:36;99340.99;;;4.11;100.00
36454;BME280;22478;51.740;-1.314;2023-03-16T05:53:03;99332.27;;;4.15;100.00
36454;BME280;22478;51.740;-1.314;2023-03-16T05:55:31;99331.29;;;5.39;100.00
36454;BME280;22478;51.740;-1.314;2023-03-16T05:57:58;99332.71;;;4.48;100.00
36454;BME280;22478;51.740;-1.314;2023-03-16T06:00:26;99340.93;;;3.84;100.00
36454;BME280;22478;51.740;-1.314;2023-03-16T06:02:53;99336.80;;;4.59;100.00
36454;BME280;22478;51.740;-1.314;2023-03-16T06:05:21;99344.05;;;3.44;100.00
36454;BME280;22478;51.740;-1.314;2023-03-16T06:07:50;99341.89;;;4.06;100.00
36454;BME280;22478;51.740;-1.314;2023-03-16T06:10:17;99335.70;;;4.21;100.00
36454;BME280;22478;51.740;-1.314;2023-03-16T06:12:45;99337.52;;;4.37;100.00
36454;BME280;22478;51.740;-1.314;2023-03-16T06:15:12;99333.14;;;4.15;100.00
36454;BME280;22478;51.740;-1.314;2023-03-16T06:17:39;99339.38;;;5.00;100.00
36454;BME280;22478;51.740;-1.314;2023-03-16T06:20:09;99337.35;;;4.46;100.00
36454;BME280;22478;51.740;-1.314;2023-03-16T06:22:39;99338.96;;;4.61;100.00
36454;BME280;22478;51.740;-1.314;2023-03-16T06:25:08;99341.71;;;3.59;100.00
36454;BME280;22478;51.740;-1.314;2023-03-16T06:27:36;99339.88;;;4.48;100.00
36454;BME280;22478;51.740;-1.314;2023-03-16T06:30:05;99336.40;;;3.42;100.00
36454;BME280;22478;51.740;-1.314;2023-03-16T06:32:33;99328.17;;;3.26;100.00
36454;BME280;22478;51.740;-1.314;2023-03-16T06:35:00;99333.16;;;3.24;100.00
36454;BME280;22478;51.740;-1.314;2023-03-16T06:37:28;99319.25;;;4.27;100.00
36454;BME280;22478;51.740;-1.314;2023-03-16T06:39:56;99310.00;;;4.08;100.00
36454;BME280;22478;51.740;-1.314;2023-03-16T06:42:23;99293.38;;;4.75;100.00
36454;BME280;22478;51.740;-1.314;2023-03-16T06:44:50;99290.68;;;2.91;100.00
36454;BME280;22478;51.740;-1.314;2023-03-16T06:47:17;99282.31;;;4.13;100.00
36454;BME280;22478;51.740;-1.314;2023-03-16T06:49:44;99281.45;;;3.15;100.00
36454;BME280;22478;51.740;-1.314;2023-03-16T06:52:12;99276.00;;;4.86;100.00
36454;BME280;22478;51.740;-1.314;2023-03-16T06:54:40;99276.89;;;4.11;100.00
36454;BME280;22478;51.740;-1.314;2023-03-16T06:57:07;99287.65;;;4.29;100.00
36454;BME280;22478;51.740;-1.314;2023-03-16T06:59:35;99289.17;;;3.35;100.00
36454;BME280;22478;51.740;-1.314;2023-03-16T07:02:03;99281.67;;;4.72;100.00
36454;BME280;22478;51.740;-1.314;2023-03-16T07:04:30;99282.59;;;3.92;100.00
36454;BME280;22478;51.740;-1.314;2023-03-16T07:06:57;99286.49;;;3.91;100.00
36454;BME280;22478;51.740;-1.314;2023-03-16T07:09:24;99294.29;;;3.54;100.00
36454;BME280;22478;51.740;-1.314;2023-03-16T07:11:51;99292.51;;;3.99;100.00
36454;BME280;22478;51.740;-1.314;2023-03-16T07:14:18;99283.47;;;4.83;100.00
36454;BME280;22478;51.740;-1.314;2023-03-16T07:16:46;99289.71;;;4.06;100.00
36454;BME280;22478;51.740;-1.314;2023-03-16T07:19:12;99292.77;;;4.35;100.00
36454;BME280;22478;51.740;-1.314;2023-03-16T07:21:40;99296.71;;;4.73;100.00
36454;BME280;22478;51.740;-1.314;2023-03-16T07:24:08;99295.50;;;5.35;100.00
36454;BME280;22478;51.740;-1.314;2023-03-16T07:26:36;99301.73;;;2.95;100.00
36454;BME280;22478;51.740;-1.314;2023-03-16T07:29:04;99302.89;;;4.29;100.00
36454;BME280;22478;51.740;-1.314;2023-03-16T07:31:31;99299.97;;;4.11;100.00
36454;BME280;22478;51.740;-1.314;2023-03-16T07:33:59;99306.57;;;2.97;100.00
36454;BME280;22478;51.740;-1.314;2023-03-16T07:36:26;99304.90;;;4.14;100.00
36454;BME280;22478;51.740;-1.314;2023-03-16T07:38:54;99302.45;;;3.75;100.00
36454;BME280;22478;51.740;-1.314;2023-03-16T07:41:20;99305.90;;;4.24;100.00
36454;BME280;22478;51.740;-1.314;2023-03-16T07:43:48;99306.02;;;5.20;100.00
36454;BME280;22478;51.740;-1.314;2023-03-16T07:46:15;99309.69;;;5.63;100.00
36454;BME280;22478;51.740;-1.314;2023-03-16T07:48:44;99308.11;;;4.58;100.00
36454;BME280;22478;51.740;-1.314;2023-03-16T07:51:12;99324.45;;;3.80;100.00
36454;BME280;22478;51.740;-1.314;2023-03-16T07:53:40;99321.49;;;3.90;100.00
36454;BME280;22478;51.740;-1.314;2023-03-16T07:56:07;99323.35;;;4.61;100.00
36454;BME280;22478;51.740;-1.314;2023-03-16T07:58:34;99325.74;;;4.43;100.00
36454;BME280;22478;51.740;-1.314;2023-03-16T08:01:02;99323.17;;;4.04;100.00
36454;BME280;22478;51.740;-1.314;2023-03-16T08:03:29;99325.14;;;4.51;100.00
36454;BME280;22478;51.740;-1.314;2023-03-16T08:05:57;99326.70;;;3.67;100.00
36454;BME280;22478;51.740;-1.314;2023-03-16T08:08:24;99326.19;;;4.47;100.00
36454;BME280;22478;51.740;-1.314;2023-03-16T08:10:52;99329.77;;;3.78;100.00
36454;BME280;22478;51.740;-1.314;2023-03-16T08:13:20;99332.46;;;3.22;100.00
36454;BME280;22478;51.740;-1.314;2023-03-16T08:15:47;99333.38;;;3.67;100.00
36454;BME280;22478;51.740;-1.314;2023-03-16T08:18:15;99331.24;;;3.70;100.00
36454;BME280;22478;51.740;-1.314;2023-03-16T08:20:41;99325.04;;;2.96;100.00
36454;BME280;22478;51.740;-1.314;2023-03-16T08:23:09;99321.60;;;3.40;100.00
36454;BME280;22478;51.740;-1.314;2023-03-16T08:25:36;99307.82;;;5.20;100.00
36454;BME280;22478;51.740;-1.314;2023-03-16T08:28:04;99319.72;;;3.22;100.00
36454;BME280;22478;51.740;-1.314;2023-03-16T08:30:31;99307.91;;;4.62;100.00
36454;BME280;22478;51.740;-1.314;2023-03-16T08:32:59;99316.93;;;2.93;100.00
36454;BME280;22478;51.740;-1.314;2023-03-16T08:35:26;99311.22;;;4.72;100.00
36454;BME280;22478;51.740;-1.314;2023-03-16T08:37:53;99308.02;;;5.79;100.00
36454;BME280;22478;51.740;-1.314;2023-03-16T08:40:21;99306.43;;;3.57;100.00
36454;BME280;22478;51.740;-1.314;2023-03-16T08:42:48;99301.05;;;5.22;100.00
36454;BME280;22478;51.740;-1.314;2023-03-16T08:45:16;99292.14;;;6.18;100.00
36454;BME280;22478;51.740;-1.314;2023-03-16T08:47:44;99303.27;;;4.89;100.00
36454;BME280;22478;51.740;-1.314;2023-03-16T08:50:12;99303.43;;;5.06;100.00
36454;BME280;22478;51.740;-1.314;2023-03-16T08:52:39;99308.58;;;4.67;100.00
36454;BME280;22478;51.740;-1.314;2023-03-16T08:55:08;99305.61;;;5.03;100.00
36454;BME280;22478;51.740;-1.314;2023-03-16T08:57:36;99310.29;;;4.99;100.00
36454;BME280;22478;51.740;-1.314;2023-03-16T09:00:05;99308.30;;;4.93;100.00
36454;BME280;22478;51.740;-1.314;2023-03-16T09:02:33;99301.50;;;4.67;100.00
36454;BME280;22478;51.740;-1.314;2023-03-16T09:04:59;99296.39;;;4.47;100.00
36454;BME280;22478;51.740;-1.314;2023-03-16T09:07:26;99299.92;;;4.73;100.00
36454;BME280;22478;51.740;-1.314;2023-03-16T09:09:54;99304.01;;;5.76;100.00
36454;BME280;22478;51.740;-1.314;2023-03-16T09:12:21;99305.19;;;4.80;100.00
36454;BME280;22478;51.740;-1.314;2023-03-16T09:14:47;99307.50;;;4.78;100.00
36454;BME280;22478;51.740;-1.314;2023-03-16T09:17:15;99301.31;;;4.33;100.00
36454;BME280;22478;51.740;-1.314;2023-03-16T09:19:42;99306.25;;;5.01;100.00
36454;BME280;22478;51.740;-1.314;2023-03-16T09:22:10;99304.64;;;4.86;100.00
36454;BME280;22478;51.740;-1.314;2023-03-16T09:24:37;99300.58;;;4.57;100.00
36454;BME280;22478;51.740;-1.314;2023-03-16T09:27:05;99302.63;;;5.61;100.00
36454;BME280;22478;51.740;-1.314;2023-03-16T09:29:32;99310.81;;;4.84;100.00
36454;BME280;22478;51.740;-1.314;2023-03-16T09:31:59;99312.57;;;4.94;100.00
36454;BME280;22478;51.740;-1.314;2023-03-16T09:34:26;99310.83;;;4.87;100.00
36454;BME280;22478;51.740;-1.314;2023-03-16T09:36:54;99308.84;;;4.30;100.00
36454;BME280;22478;51.740;-1.314;2023-03-16T09:39:21;99301.68;;;5.08;100.00
36454;BME280;22478;51.740;-1.314;2023-03-16T09:41:52;99297.21;;;5.65;100.00
36454;BME280;22478;51.740;-1.314;2023-03-16T09:44:33;99295.88;;;4.79;100.00
36454;BME280;22478;51.740;-1.314;2023-03-16T09:47:06;99294.70;;;4.88;100.00
36454;BME280;22478;51.740;-1.314;2023-03-16T09:49:38;99286.53;;;5.00;100.00
36454;BME280;22478;51.740;-1.314;2023-03-16T09:52:16;99283.30;;;4.87;100.00
36454;BME280;22478;51.740;-1.314;2023-03-16T09:54:50;99282.69;;;4.98;100.00
36454;BME280;22478;51.740;-1.314;2023-03-16T09:57:25;99283.48;;;3.96;100.00
36454;BME280;22478;51.740;-1.314;2023-03-16T09:59:54;99281.25;;;4.40;100.00
36454;BME280;22478;51.740;-1.314;2023-03-16T10:02:41;99280.83;;;4.88;100.00
36454;BME280;22478;51.740;-1.314;2023-03-16T10:05:12;99280.11;;;3.97;100.00
36454;BME280;22478;51.740;-1.314;2023-03-16T10:07:47;99279.89;;;5.31;100.00
36454;BME280;22478;51.740;-1.314;2023-03-16T10:10:26;99275.15;;;3.92;100.00
36454;BME280;22478;51.740;-1.314;2023-03-16T10:13:02;99272.85;;;4.97;100.00
36454;BME280;22478;51.740;-1.314;2023-03-16T10:15:34;99272.16;;;6.13;100.00
36454;BME280;22478;51.740;-1.314;2023-03-16T10:18:06;99285.62;;;3.87;100.00
36454;BME280;22478;51.740;-1.314;2023-03-16T10:20:37;99274.51;;;4.62;100.00
36454;BME280;22478;51.740;-1.314;2023-03-16T10:23:14;99272.31;;;5.84;100.00
36454;BME280;22478;51.740;-1.314;2023-03-16T10:25:45;99273.14;;;5.63;100.00
36454;BME280;22478;51.740;-1.314;2023-03-16T10:28:15;99272.66;;;4.66;100.00
36454;BME280;22478;51.740;-1.314;2023-03-16T10:30:43;99267.17;;;5.05;100.00
36454;BME280;22478;51.740;-1.314;2023-03-16T10:33:19;99263.85;;;5.45;100.00
36454;BME280;22478;51.740;-1.314;2023-03-16T10:35:51;99260.49;;;5.09;100.00
36454;BME280;22478;51.740;-1.314;2023-03-16T10:38:29;99249.33;;;5.97;100.00
36454;BME280;22478;51.740;-1.314;2023-03-16T10:40:57;99250.47;;;5.49;100.00
36454;BME280;22478;51.740;-1.314;2023-03-16T10:43:25;99243.07;;;6.03;100.00
36454;BME280;22478;51.740;-1.314;2023-03-16T10:45:57;99230.76;;;7.10;100.00
36454;BME280;22478;51.740;-1.314;2023-03-16T10:48:25;99222.60;;;6.78;100.00
36454;BME280;22478;51.740;-1.314;2023-03-16T10:50:54;99226.11;;;7.62;100.00
36454;BME280;22478;51.740;-1.314;2023-03-16T10:53:26;99232.21;;;6.91;100.00
36454;BME280;22478;51.740;-1.314;2023-03-16T10:55:57;99220.06;;;6.65;100.00
36454;BME280;22478;51.740;-1.314;2023-03-16T10:58:29;99219.26;;;7.32;100.00
36454;BME280;22478;51.740;-1.314;2023-03-16T11:00:57;99226.48;;;5.52;100.00
36454;BME280;22478;51.740;-1.314;2023-03-16T11:03:27;99228.16;;;6.84;100.00
36454;BME280;22478;51.740;-1.314;2023-03-16T11:05:58;99225.70;;;6.17;100.00
36454;BME280;22478;51.740;-1.314;2023-03-16T11:08:29;99217.38;;;7.07;100.00
36454;BME280;22478;51.740;-1.314;2023-03-16T11:10:59;99226.49;;;6.32;100.00
36454;BME280;22478;51.740;-1.314;2023-03-16T11:13:32;99226.63;;;5.08;100.00
36454;BME280;22478;51.740;-1.314;2023-03-16T11:16:03;99210.58;;;6.92;100.00
36454;BME280;22478;51.740;-1.314;2023-03-16T11:18:36;99206.69;;;6.16;100.00
36454;BME280;22478;51.740;-1.314;2023-03-16T11:21:10;99207.54;;;7.74;100.00
36454;BME280;22478;51.740;-1.314;2023-03-16T11:23:43;99200.18;;;8.42;100.00
36454;BME280;22478;51.740;-1.314;2023-03-16T11:26:16;99207.66;;;7.69;100.00
36454;BME280;22478;51.740;-1.314;2023-03-16T11:28:50;99210.48;;;8.03;100.00
36454;BME280;22478;51.740;-1.314;2023-03-16T11:31:24;99212.49;;;9.02;100.00
36454;BME280;22478;51.740;-1.314;2023-03-16T11:33:54;99202.80;;;8.23;100.00
36454;BME280;22478;51.740;-1.314;2023-03-16T11:36:36;99186.35;;;8.42;100.00
36454;BME280;22478;51.740;-1.314;2023-03-16T11:39:09;99181.22;;;7.68;100.00
36454;BME280;22478;51.740;-1.314;2023-03-16T11:41:50;99177.66;;;7.68;100.00
36454;BME280;22478;51.740;-1.314;2023-03-16T11:44:27;99189.75;;;7.33;100.00
36454;BME280;22478;51.740;-1.314;2023-03-16T11:47:08;99197.30;;;5.72;100.00
36454;BME280;22478;51.740;-1.314;2023-03-16T11:49:52;99198.87;;;8.16;100.00
36454;BME280;22478;51.740;-1.314;2023-03-16T11:52:32;99199.32;;;7.72;100.00
36454;BME280;22478;51.740;-1.314;2023-03-16T11:55:11;99196.49;;;8.53;100.00
36454;BME280;22478;51.740;-1.314;2023-03-16T11:57:49;99189.02;;;9.75;100.00
36454;BME280;22478;51.740;-1.314;2023-03-16T12:00:30;99194.19;;;6.77;100.00
36454;BME280;22478;51.740;-1.314;2023-03-16T12:03:16;99187.75;;;7.74;100.00
36454;BME280;22478;51.740;-1.314;2023-03-16T12:05:54;99190.18;;;8.99;100.00
36454;BME280;22478;51.740;-1.314;2023-03-16T12:08:31;99192.60;;;6.68;100.00
36454;BME280;22478;51.740;-1.314;2023-03-16T12:11:02;99184.56;;;8.69;100.00
36454;BME280;22478;51.740;-1.314;2023-03-16T12:13:40;99191.21;;;7.78;100.00
36454;BME280;22478;51.740;-1.314;2023-03-16T12:16:17;99176.67;;;6.94;100.00
36454;BME280;22478;51.740;-1.314;2023-03-16T12:18:51;99174.36;;;7.26;100.00
36454;BME280;22478;51.740;-1.314;2023-03-16T12:21:25;99170.74;;;6.94;100.00
36454;BME280;22478;51.740;-1.314;2023-03-16T12:23:57;99164.20;;;8.04;100.00
36454;BME280;22478;51.740;-1.314;2023-03-16T12:26:27;99159.25;;;7.83;100.00
36454;BME280;22478;51.740;-1.314;2023-03-16T12:28:57;99159.86;;;7.01;100.00
36454;BME280;22478;51.740;-1.314;2023-03-16T12:31:35;99143.99;;;7.41;100.00
36454;BME280;22478;51.740;-1.314;2023-03-16T12:34:08;99146.51;;;7.68;100.00
36454;BME280;22478;51.740;-1.314;2023-03-16T12:36:47;99145.80;;;6.38;100.00
36454;BME280;22478;51.740;-1.314;2023-03-16T12:39:22;99138.71;;;7.61;100.00
36454;BME280;22478;51.740;-1.314;2023-03-16T12:42:02;99147.77;;;7.43;100.00
36454;BME280;22478;51.740;-1.314;2023-03-16T12:44:41;99135.04;;;7.92;100.00
36454;BME280;22478;51.740;-1.314;2023-03-16T12:47:18;99125.82;;;7.68;100.00
36454;BME280;22478;51.740;-1.314;2023-03-16T12:49:49;99134.02;;;8.42;100.00
36454;BME280;22478;51.740;-1.314;2023-03-16T12:52:17;99126.27;;;7.49;100.00
36454;BME280;22478;51.740;-1.314;2023-03-16T12:54:53;99130.18;;;8.34;100.00
36454;BME280;22478;51.740;-1.314;2023-03-16T12:57:32;99127.80;;;8.39;100.00
36454;BME280;22478;51.740;-1.314;2023-03-16T13:00:00;99131.70;;;8.82;100.00
36454;BME280;22478;51.740;-1.314;2023-03-16T13:02:30;99135.78;;;8.57;100.00